Time;durP1;ratioP1;P1;durP2;ratioP2;P2;SDS_P1;SDS_P2;PMS_P1;PMS_P2;Temp;Humidity;BMP_temperature;BMP_pressure;BME280_temperature;BME280_humidity;BME280_pressure;Samples;Min_cycle;Max_cycle;Signal;HPM_P1;HPM_P2
2022/08/28 00:00:55;;;;;;;3.15;1.80;;;;;;;;;;7389706;19;20455;-70
2022/08/28 00:03:20;;;;;;;2.17;1.73;;;;;;;;;;7389850;19;19998;-71
2022/08/28 00:05:46;;;;;;;3.03;1.83;;;;;;;;;;7389506;19;20010;-70
2022/08/28 00:08:13;;;;;;;3.55;2.00;;;;;;;;;;7390340;19;20054;-72
2022/08/28 00:10:40;;;;;;;3.67;1.75;;;;;;;;;;7389912;19;20678;-72
2022/08/28 00:13:07;;;;;;;2.65;1.73;;;;;;;;;;7393541;19;20007;-70
2022/08/28 00:15:36;;;;;;;2.42;1.70;;;;;;;;;;7390556;19;20422;-72
2022/08/28 00:18:04;;;;;;;3.22;1.38;;;;;;;;;;7391434;19;20007;-72
2022/08/28 00:20:31;;;;;;;3.67;1.45;;;;;;;;;;7387363;19;20069;-70
2022/08/28 00:22:58;;;;;;;3.00;1.50;;;;;;;;;;7389591;19;20408;-71
2022/08/28 00:25:26;;;;;;;4.03;2.00;;;;;;;;;;7390581;19;19995;-71
2022/08/28 00:27:53;;;;;;;3.78;1.60;;;;;;;;;;7389875;19;20003;-71
2022/08/28 00:30:31;;;;;;;4.80;1.70;;;;;;;;;;7389180;19;20354;-71
2022/08/28 00:33:13;;;;;;;2.90;1.70;;;;;;;;;;7387911;19;20511;-71
2022/08/28 00:35:39;;;;;;;2.10;1.38;;;;;;;;;;7389951;19;20009;-71
2022/08/28 00:38:05;;;;;;;2.42;1.50;;;;;;;;;;7388276;19;19999;-71
2022/08/28 00:40:31;;;;;;;2.25;1.48;;;;;;;;;;7388356;19;20066;-71
2022/08/28 00:42:57;;;;;;;3.85;1.55;;;;;;;;;;7387691;19;20460;-71
2022/08/28 00:45:24;;;;;;;1.75;1.40;;;;;;;;;;7389984;19;19998;-70
2022/08/28 00:47:50;;;;;;;4.10;1.95;;;;;;;;;;7389035;19;20003;-71
2022/08/28 00:50:18;;;;;;;2.60;1.60;;;;;;;;;;7388054;19;20002;-70
2022/08/28 00:52:46;;;;;;;1.75;1.48;;;;;;;;;;7387295;19;20488;-71
2022/08/28 00:55:16;;;;;;;1.73;1.30;;;;;;;;;;7387040;19;20084;-71
2022/08/28 00:57:47;;;;;;;3.10;1.90;;;;;;;;;;7388812;19;20077;-71
2022/08/28 01:00:18;;;;;;;3.13;1.23;;;;;;;;;;7387836;19;20005;-71
2022/08/28 01:02:44;;;;;;;2.65;1.83;;;;;;;;;;7387926;19;20534;-71
2022/08/28 01:05:10;;;;;;;3.45;1.60;;;;;;;;;;7387010;19;20027;-71
2022/08/28 01:07:37;;;;;;;2.47;1.92;;;;;;;;;;7388384;19;19998;-70
2022/08/28 01:10:06;;;;;;;5.80;1.92;;;;;;;;;;7387713;19;19999;-71
2022/08/28 01:12:33;;;;;;;3.97;1.38;;;;;;;;;;7386895;19;20571;-70
2022/08/28 01:15:03;;;;;;;3.50;1.75;;;;;;;;;;7388600;19;20066;-70
2022/08/28 01:17:32;;;;;;;1.75;1.33;;;;;;;;;;7389515;19;20006;-70
2022/08/28 01:20:03;;;;;;;3.10;1.42;;;;;;;;;;7386595;19;19999;-70
2022/08/28 01:22:37;;;;;;;3.60;1.50;;;;;;;;;;7387093;19;20058;-70
2022/08/28 01:25:15;;;;;;;2.33;1.40;;;;;;;;;;7388299;19;20044;-70
2022/08/28 01:27:41;;;;;;;4.07;1.40;;;;;;;;;;7386311;19;20002;-71
2022/08/28 01:30:12;;;;;;;5.60;1.90;;;;;;;;;;7386574;19;20402;-70
2022/08/28 01:32:41;;;;;;;2.10;1.40;;;;;;;;;;7386496;19;20012;-72
2022/08/28 01:35:10;;;;;;;2.28;1.70;;;;;;;;;;7387616;19;20002;-71
2022/08/28 01:37:36;;;;;;;1.88;1.60;;;;;;;;;;7387529;19;20380;-71
2022/08/28 01:40:04;;;;;;;2.20;1.52;;;;;;;;;;7386318;19;19994;-71
2022/08/28 01:42:35;;;;;;;3.72;1.60;;;;;;;;;;7384651;19;20437;-70
2022/08/28 01:45:01;;;;;;;6.32;1.85;;;;;;;;;;7387603;19;20512;-70
2022/08/28 01:47:26;;;;;;;1.95;1.63;;;;;;;;;;7385839;19;20005;-71
2022/08/28 01:49:51;;;;;;;2.35;1.05;;;;;;;;;;7384655;19;20022;-71
2022/08/28 01:52:17;;;;;;;2.85;1.27;;;;;;;;;;7386306;19;20569;-70
2022/08/28 01:54:42;;;;;;;3.20;1.48;;;;;;;;;;7388281;19;20002;-72
2022/08/28 01:57:07;;;;;;;1.77;1.35;;;;;;;;;;7387944;19;20009;-71
2022/08/28 01:59:33;;;;;;;5.00;2.05;;;;;;;;;;7386359;19;19995;-72
2022/08/28 02:01:58;;;;;;;1.92;1.42;;;;;;;;;;7386412;19;20003;-73
2022/08/28 02:04:24;;;;;;;3.00;1.70;;;;;;;;;;7387766;19;19998;-71
2022/08/28 02:06:49;;;;;;;1.77;1.40;;;;;;;;;;7386003;19;20002;-71
2022/08/28 02:09:15;;;;;;;1.83;1.60;;;;;;;;;;7384483;19;20003;-71
2022/08/28 02:11:42;;;;;;;2.58;1.58;;;;;;;;;;7383772;19;20001;-69
2022/08/28 02:14:08;;;;;;;3.22;1.92;;;;;;;;;;7387599;19;19998;-71
2022/08/28 02:16:33;;;;;;;4.63;2.13;;;;;;;;;;7387540;19;20058;-71
2022/08/28 02:18:59;;;;;;;2.05;1.40;;;;;;;;;;7385835;19;20015;-71
2022/08/28 02:21:24;;;;;;;4.90;2.00;;;;;;;;;;7388984;19;20002;-72
2022/08/28 02:23:50;;;;;;;2.28;1.73;;;;;;;;;;7389765;19;19998;-71
2022/08/28 02:26:16;;;;;;;2.42;1.35;;;;;;;;;;7387321;19;19998;-71
2022/08/28 02:28:42;;;;;;;4.13;1.52;;;;;;;;;;7385876;19;20329;-71
2022/08/28 02:31:08;;;;;;;4.45;1.60;;;;;;;;;;7385144;19;19994;-71
2022/08/28 02:33:39;;;;;;;1.58;1.42;;;;;;;;;;7386878;19;20054;-72
2022/08/28 02:36:07;;;;;;;2.78;1.77;;;;;;;;;;7386557;19;19994;-69
2022/08/28 02:38:33;;;;;;;2.42;1.50;;;;;;;;;;7386988;19;20006;-71
2022/08/28 02:40:58;;;;;;;3.58;2.00;;;;;;;;;;7383456;19;19999;-71
2022/08/28 02:43:23;;;;;;;4.72;2.17;;;;;;;;;;7386634;19;19990;-71
2022/08/28 02:45:49;;;;;;;4.70;2.22;;;;;;;;;;7387459;19;19994;-71
2022/08/28 02:48:14;;;;;;;3.10;1.63;;;;;;;;;;7390499;19;19997;-70
2022/08/28 02:50:39;;;;;;;5.90;1.98;;;;;;;;;;7392065;19;19994;-71
2022/08/28 02:53:05;;;;;;;2.85;1.75;;;;;;;;;;7393699;19;19995;-71
2022/08/28 02:55:30;;;;;;;4.05;2.00;;;;;;;;;;7394562;19;19998;-71
2022/08/28 02:57:56;;;;;;;3.47;1.67;;;;;;;;;;7394900;19;20006;-71
2022/08/28 03:00:24;;;;;;;2.13;1.42;;;;;;;;;;7392069;19;20640;-72
2022/08/28 03:02:51;;;;;;;3.17;2.00;;;;;;;;;;7390135;19;20484;-70
2022/08/28 03:05:20;;;;;;;3.15;1.65;;;;;;;;;;7393066;19;19994;-70
2022/08/28 03:07:49;;;;;;;3.03;1.80;;;;;;;;;;7392196;19;20002;-70
2022/08/28 03:10:15;;;;;;;3.03;1.92;;;;;;;;;;7389239;19;20491;-71
2022/08/28 03:12:41;;;;;;;2.30;1.50;;;;;;;;;;7390198;19;20006;-71
2022/08/28 03:15:07;;;;;;;2.65;1.70;;;;;;;;;;7391207;19;20338;-71
2022/08/28 03:17:35;;;;;;;4.13;1.83;;;;;;;;;;7390044;19;19995;-71
2022/08/28 03:20:01;;;;;;;2.17;1.40;;;;;;;;;;7388994;19;20003;-72
2022/08/28 03:25:11;;;;;;;2.80;1.60;;;;;;;;;;7392959;19;20014;-70
2022/08/28 03:27:37;;;;;;;2.42;1.67;;;;;;;;;;7391501;19;20042;-70
2022/08/28 03:30:05;;;;;;;3.72;1.92;;;;;;;;;;7388660;19;20547;-71
2022/08/28 03:32:31;;;;;;;2.35;1.67;;;;;;;;;;7389646;19;20002;-71
2022/08/28 03:34:57;;;;;;;3.33;1.77;;;;;;;;;;7389723;19;19995;-71
2022/08/28 03:37:22;;;;;;;2.72;1.70;;;;;;;;;;7391629;19;19991;-71
2022/08/28 03:39:48;;;;;;;3.35;1.85;;;;;;;;;;7390472;19;20417;-71
2022/08/28 03:42:14;;;;;;;3.17;2.17;;;;;;;;;;7389956;19;20002;-72
2022/08/28 03:44:39;;;;;;;5.30;2.13;;;;;;;;;;7389836;19;20005;-70
2022/08/28 03:47:04;;;;;;;3.97;2.10;;;;;;;;;;7391366;19;20009;-70
2022/08/28 03:49:30;;;;;;;3.22;1.63;;;;;;;;;;7387978;19;19995;-70
2022/08/28 03:51:56;;;;;;;4.25;1.70;;;;;;;;;;7389305;19;20013;-70
2022/08/28 03:54:23;;;;;;;2.17;1.40;;;;;;;;;;7391157;19;20429;-71
2022/08/28 03:56:50;;;;;;;1.83;1.40;;;;;;;;;;7390882;19;19995;-72
2022/08/28 03:59:17;;;;;;;2.10;1.60;;;;;;;;;;7389019;19;20582;-72
2022/08/28 04:01:42;;;;;;;2.90;1.67;;;;;;;;;;7388310;19;20775;-71
2022/08/28 04:04:08;;;;;;;2.33;1.60;;;;;;;;;;7390971;19;19998;-71
2022/08/28 04:06:33;;;;;;;4.63;1.70;;;;;;;;;;7390795;19;20576;-71
2022/08/28 04:08:59;;;;;;;3.35;2.20;;;;;;;;;;7389512;19;20613;-72
2022/08/28 04:11:24;;;;;;;2.92;1.70;;;;;;;;;;7387181;19;20022;-71
2022/08/28 04:13:50;;;;;;;2.63;1.70;;;;;;;;;;7394281;19;20054;-71
2022/08/28 04:16:17;;;;;;;3.75;1.70;;;;;;;;;;7388961;19;19998;-72
2022/08/28 04:18:44;;;;;;;4.85;1.75;;;;;;;;;;7390789;19;20001;-70
2022/08/28 04:21:15;;;;;;;4.40;1.80;;;;;;;;;;7389125;19;20003;-72
2022/08/28 04:23:42;;;;;;;4.18;1.83;;;;;;;;;;7388853;19;19998;-71
2022/08/28 04:26:10;;;;;;;3.13;2.00;;;;;;;;;;7390501;19;20062;-72
2022/08/28 04:28:35;;;;;;;4.95;1.98;;;;;;;;;;7389767;19;20006;-71
2022/08/28 04:31:02;;;;;;;6.18;2.10;;;;;;;;;;7392968;19;20010;-71
2022/08/28 04:33:28;;;;;;;5.15;1.80;;;;;;;;;;7389008;19;20333;-72
2022/08/28 04:35:54;;;;;;;4.65;2.22;;;;;;;;;;7388403;19;20014;-71
2022/08/28 04:38:20;;;;;;;4.25;2.67;;;;;;;;;;7390253;19;20001;-72
2022/08/28 04:40:46;;;;;;;4.55;2.40;;;;;;;;;;7388403;19;20082;-71
2022/08/28 04:43:11;;;;;;;5.03;2.03;;;;;;;;;;7389435;19;20078;-71
2022/08/28 04:45:42;;;;;;;2.92;1.52;;;;;;;;;;7388058;19;20463;-71
2022/08/28 04:48:07;;;;;;;3.83;1.83;;;;;;;;;;7389598;19;20689;-72
2022/08/28 04:50:33;;;;;;;6.45;1.75;;;;;;;;;;7388593;19;19995;-70
2022/08/28 04:52:58;;;;;;;3.70;1.50;;;;;;;;;;7387971;19;19995;-71
2022/08/28 04:55:24;;;;;;;5.35;1.58;;;;;;;;;;7389837;19;20014;-71
2022/08/28 04:57:49;;;;;;;3.95;1.77;;;;;;;;;;7389896;19;20025;-72
2022/08/28 05:00:15;;;;;;;10.20;2.05;;;;;;;;;;7390664;19;19995;-71
2022/08/28 05:02:40;;;;;;;5.05;2.42;;;;;;;;;;7389995;19;20520;-72
2022/08/28 05:05:06;;;;;;;2.10;1.70;;;;;;;;;;7394083;19;19997;-73
2022/08/28 05:07:32;;;;;;;3.65;1.75;;;;;;;;;;7392644;19;20338;-69
2022/08/28 05:09:58;;;;;;;4.95;1.85;;;;;;;;;;7385989;19;19991;-70
2022/08/28 05:12:23;;;;;;;3.20;1.50;;;;;;;;;;7387599;19;20104;-70
2022/08/28 05:14:49;;;;;;;4.18;1.85;;;;;;;;;;7392899;19;20329;-69
2022/08/28 05:17:14;;;;;;;3.22;1.80;;;;;;;;;;7392870;19;20005;-71
2022/08/28 05:19:40;;;;;;;4.60;1.50;;;;;;;;;;7392366;19;20011;-69
2022/08/28 05:22:08;;;;;;;2.28;1.48;;;;;;;;;;7389255;19;20031;-70
2022/08/28 05:24:35;;;;;;;5.20;1.60;;;;;;;;;;7388604;19;20028;-71
2022/08/28 05:27:01;;;;;;;2.53;1.67;;;;;;;;;;7388472;19;20065;-69
2022/08/28 05:29:27;;;;;;;3.15;1.70;;;;;;;;;;7386373;19;20009;-68
2022/08/28 05:31:52;;;;;;;4.63;2.40;;;;;;;;;;7385924;19;20054;-69
2022/08/28 05:34:19;;;;;;;4.18;1.70;;;;;;;;;;7389231;19;20055;-70
2022/08/28 05:36:45;;;;;;;3.80;2.08;;;;;;;;;;7387919;19;20649;-68
2022/08/28 05:39:11;;;;;;;3.03;1.77;;;;;;;;;;7387697;19;20002;-69
2022/08/28 05:41:39;;;;;;;1.92;1.27;;;;;;;;;;7385819;19;20745;-68
2022/08/28 05:44:08;;;;;;;6.03;1.88;;;;;;;;;;7388180;19;20081;-68
2022/08/28 05:46:36;;;;;;;2.40;1.35;;;;;;;;;;7386423;19;20353;-73
2022/08/28 05:49:02;;;;;;;3.90;1.55;;;;;;;;;;7386492;19;20042;-71
2022/08/28 05:51:28;;;;;;;2.85;1.70;;;;;;;;;;7385873;19;20078;-70
2022/08/28 05:53:56;;;;;;;1.55;1.27;;;;;;;;;;7387621;19;20364;-71
2022/08/28 05:56:30;;;;;;;3.38;1.55;;;;;;;;;;7387798;19;20019;-69
2022/08/28 05:59:00;;;;;;;6.28;1.80;;;;;;;;;;7387441;19;19998;-70
2022/08/28 06:01:31;;;;;;;3.47;1.60;;;;;;;;;;7386239;19;19999;-71
2022/08/28 06:04:04;;;;;;;6.40;1.88;;;;;;;;;;7387538;19;20002;-70
2022/08/28 06:06:33;;;;;;;2.13;1.33;;;;;;;;;;7389002;19;20026;-73
2022/08/28 06:09:14;;;;;;;3.15;1.30;;;;;;;;;;7386339;19;20005;-70
2022/08/28 06:11:41;;;;;;;2.55;1.27;;;;;;;;;;7385132;19;20329;-73
2022/08/28 06:14:09;;;;;;;4.60;1.65;;;;;;;;;;7390536;19;19995;-70
2022/08/28 06:16:40;;;;;;;2.78;1.35;;;;;;;;;;7387038;19;20007;-71
2022/08/28 06:19:08;;;;;;;1.75;1.15;;;;;;;;;;7386921;19;20006;-70
2022/08/28 06:21:34;;;;;;;2.47;1.33;;;;;;;;;;7388473;19;19999;-70
2022/08/28 06:24:00;;;;;;;2.72;1.45;;;;;;;;;;7395870;19;20344;-69
2022/08/28 06:26:26;;;;;;;1.70;1.08;;;;;;;;;;7393171;19;19994;-71
2022/08/28 06:28:52;;;;;;;4.38;1.70;;;;;;;;;;7394085;19;20001;-75
2022/08/28 06:31:18;;;;;;;4.25;1.90;;;;;;;;;;7392264;19;20002;-71
2022/08/28 06:33:45;;;;;;;4.93;1.50;;;;;;;;;;7394260;19;20055;-72
2022/08/28 06:36:11;;;;;;;2.53;1.40;;;;;;;;;;7394821;19;19994;-69
